createdAt,value
2022-11-10T00:00:23.644Z,24.27
2022-11-10T00:02:50.249Z,22.25
2022-11-10T00:05:17.126Z,11.98
2022-11-10T00:07:44.143Z,23.77
2022-11-10T00:10:11.731Z,17.50
2022-11-10T00:12:39.459Z,20.02
2022-11-10T00:15:24.923Z,19.15
2022-11-10T00:18:00.595Z,15.32
2022-11-10T00:20:32.331Z,20.45
2022-11-10T00:22:59.098Z,17.25
2022-11-10T00:25:26.649Z,14.38
2022-11-10T00:27:53.281Z,10.98
2022-11-10T00:30:20.044Z,17.52
2022-11-10T00:32:47.418Z,15.68
2022-11-10T00:35:17.287Z,21.77
2022-11-10T00:37:43.929Z,17.50
2022-11-10T00:40:11.211Z,17.58
2022-11-10T00:42:38.016Z,21.85
2022-11-10T00:45:12.473Z,23.52
2022-11-10T00:47:39.353Z,25.52
2022-11-10T00:50:07.048Z,16.15
2022-11-10T00:52:33.950Z,17.08
2022-11-10T00:55:01.102Z,19.40
2022-11-10T00:57:27.837Z,16.48
2022-11-10T01:00:15.928Z,12.95
2022-11-10T01:03:07.286Z,18.20
2022-11-10T01:05:38.433Z,18.38
2022-11-10T01:08:08.047Z,19.42
2022-11-10T01:10:35.035Z,18.23
2022-11-10T01:13:01.776Z,19.52
2022-11-10T01:15:28.498Z,20.23
2022-11-10T01:17:58.402Z,17.20
2022-11-10T01:20:25.157Z,19.40
2022-11-10T01:22:52.033Z,18.15
2022-11-10T01:25:18.648Z,15.70
2022-11-10T01:27:45.587Z,14.60
2022-11-10T01:30:12.386Z,17.63
2022-11-10T01:32:38.995Z,21.90
2022-11-10T01:35:05.909Z,16.42
2022-11-10T01:37:32.513Z,15.90
2022-11-10T01:39:59.241Z,15.63
2022-11-10T01:42:41.106Z,21.40
2022-11-10T01:45:39.859Z,17.75
2022-11-10T01:48:11.786Z,24.95
2022-11-10T01:50:40.244Z,20.88
2022-11-10T01:53:09.829Z,22.70
2022-11-10T01:55:38.479Z,19.02
2022-11-10T01:58:05.939Z,17.55
2022-11-10T02:00:32.879Z,22.17
2022-11-10T02:03:08.281Z,19.42
2022-11-10T02:05:35.541Z,20.02
2022-11-10T02:08:02.836Z,19.02
2022-11-10T02:10:29.537Z,21.45
2022-11-10T02:12:56.357Z,20.92
2022-11-10T02:15:23.353Z,19.77
2022-11-10T02:17:50.146Z,17.13
2022-11-10T02:20:18.582Z,21.20
2022-11-10T02:22:45.637Z,13.18
2022-11-10T02:25:14.686Z,16.98
2022-11-10T02:27:41.485Z,23.33
2022-11-10T02:30:08.726Z,19.58
2022-11-10T02:32:35.365Z,18.58
2022-11-10T02:35:02.176Z,22.48
2022-11-10T02:37:29.126Z,23.33
2022-11-10T02:39:55.877Z,21.65
2022-11-10T02:42:22.529Z,19.92
2022-11-10T02:44:49.619Z,23.80
2022-11-10T02:47:16.339Z,18.10
2022-11-10T02:49:45.181Z,24.02
2022-11-10T02:52:12.054Z,16.27
2022-11-10T02:54:38.967Z,25.02
2022-11-10T02:57:05.546Z,17.38
2022-11-10T02:59:33.292Z,20.70
2022-11-10T03:02:00.172Z,29.83
2022-11-10T03:04:26.867Z,16.38
2022-11-10T03:06:56.477Z,18.33
2022-11-10T03:09:26.244Z,17.00
2022-11-10T03:11:52.926Z,23.55
2022-11-10T03:14:19.647Z,19.75
2022-11-10T03:16:46.370Z,23.13
2022-11-10T03:19:14.188Z,23.88
2022-11-10T03:21:40.906Z,19.83
2022-11-10T03:24:07.498Z,24.00
2022-11-10T03:26:34.377Z,18.10
2022-11-10T03:29:01.180Z,22.80
2022-11-10T03:31:27.980Z,20.60
2022-11-10T03:33:54.699Z,26.70
2022-11-10T03:36:21.347Z,22.05
2022-11-10T03:38:50.778Z,22.90
2022-11-10T03:41:20.155Z,18.05
2022-11-10T03:43:47.541Z,25.17
2022-11-10T03:46:14.115Z,25.73
2022-11-10T03:48:40.641Z,26.75
2022-11-10T03:51:07.321Z,24.35
2022-11-10T03:53:35.941Z,19.48
2022-11-10T03:56:07.049Z,19.10
2022-11-10T03:58:33.709Z,31.88
2022-11-10T04:01:00.624Z,24.65
2022-11-10T04:03:27.250Z,12.38
2022-11-10T04:06:12.770Z,16.88
2022-11-10T04:09:00.397Z,21.90
2022-11-10T04:11:46.406Z,22.35
2022-11-10T04:14:39.353Z,15.82
2022-11-10T04:17:06.092Z,22.42
2022-11-10T04:19:32.905Z,18.08
2022-11-10T04:21:59.709Z,23.13
2022-11-10T04:24:26.534Z,24.15
2022-11-10T04:26:53.278Z,24.65
2022-11-10T04:29:20.357Z,19.98
2022-11-10T04:31:47.147Z,21.73
2022-11-10T04:34:14.770Z,23.40
2022-11-10T04:36:43.859Z,23.27
2022-11-10T04:39:10.979Z,24.40
2022-11-10T04:41:40.906Z,25.83
2022-11-10T04:44:07.806Z,21.17
2022-11-10T04:46:36.192Z,24.73
2022-11-10T04:49:03.206Z,24.08
2022-11-10T04:51:33.839Z,16.80
2022-11-10T04:54:05.264Z,19.73
2022-11-10T04:56:32.013Z,21.70
2022-11-10T04:58:58.801Z,26.13
2022-11-10T05:01:27.127Z,20.60
2022-11-10T05:03:54.043Z,24.65
2022-11-10T05:06:21.443Z,25.35
2022-11-10T05:08:48.156Z,21.80
2022-11-10T05:11:15.046Z,19.00
2022-11-10T05:13:44.524Z,22.20
2022-11-10T05:16:11.933Z,23.10
2022-11-10T05:18:38.802Z,20.50
2022-11-10T05:21:05.551Z,27.55
2022-11-10T05:23:44.807Z,18.63
2022-11-10T05:26:16.333Z,22.23
2022-11-10T05:28:45.486Z,22.38
2022-11-10T05:31:12.951Z,26.60
2022-11-10T05:33:39.868Z,19.42
2022-11-10T05:36:08.584Z,23.70
2022-11-10T05:38:40.299Z,35.38
2022-11-10T05:41:08.844Z,21.70
2022-11-10T05:43:35.529Z,19.83
2022-11-10T05:46:05.093Z,23.48
2022-11-10T05:48:31.714Z,28.02
2022-11-10T05:50:58.192Z,21.25
2022-11-10T05:53:25.132Z,30.33
2022-11-10T05:55:51.976Z,25.52
2022-11-10T05:58:18.802Z,23.30
2022-11-10T06:00:45.289Z,25.17
2022-11-10T06:03:19.855Z,24.05
2022-11-10T06:05:47.097Z,22.20
2022-11-10T06:08:14.146Z,25.15
2022-11-10T06:10:41.173Z,23.63
2022-11-10T06:13:07.714Z,29.00
2022-11-10T06:15:34.499Z,24.10
2022-11-10T06:18:01.139Z,32.38
2022-11-10T06:20:28.037Z,37.88
2022-11-10T06:23:02.022Z,32.42
2022-11-10T06:25:29.715Z,21.65
2022-11-10T06:27:58.454Z,22.17
2022-11-10T06:30:26.010Z,23.42
2022-11-10T06:32:52.701Z,23.20
2022-11-10T06:35:21.482Z,26.85
2022-11-10T06:38:01.489Z,29.35
2022-11-10T06:40:31.585Z,25.80
2022-11-10T06:42:58.505Z,28.08
2022-11-10T06:45:28.708Z,28.92
2022-11-10T06:48:01.263Z,25.58
2022-11-10T06:50:27.790Z,22.63
2022-11-10T06:52:58.030Z,28.70
2022-11-10T06:55:25.176Z,29.00
2022-11-10T06:57:51.633Z,25.52
2022-11-10T07:00:18.284Z,19.83
2022-11-10T07:02:47.532Z,35.65
2022-11-10T07:05:15.588Z,23.77
2022-11-10T07:07:42.016Z,29.75
2022-11-10T07:10:08.991Z,26.00
2022-11-10T07:12:35.558Z,20.42
2022-11-10T07:15:14.156Z,21.55
2022-11-10T07:17:44.150Z,27.73
2022-11-10T07:20:10.913Z,21.73
2022-11-10T07:22:37.650Z,27.90
2022-11-10T07:25:04.353Z,31.25
2022-11-10T07:27:34.062Z,17.75
2022-11-10T07:30:07.183Z,27.92
2022-11-10T07:32:33.794Z,26.85
2022-11-10T07:35:00.440Z,26.83
2022-11-10T07:37:28.829Z,21.45
2022-11-10T07:39:58.142Z,17.88
2022-11-10T07:42:24.692Z,25.30
2022-11-10T07:44:51.474Z,17.17
2022-11-10T07:47:18.005Z,23.48
2022-11-10T07:49:44.488Z,33.17
2022-11-10T07:52:10.935Z,29.35
2022-11-10T07:54:37.576Z,23.63
2022-11-10T07:57:04.294Z,21.10
2022-11-10T07:59:33.181Z,24.40
2022-11-10T08:02:00.005Z,27.20
2022-11-10T08:04:26.613Z,23.77
2022-11-10T08:06:54.632Z,19.67
2022-11-10T08:09:21.420Z,26.00
2022-11-10T08:11:47.999Z,21.55
2022-11-10T08:14:14.722Z,22.15
2022-11-10T08:16:49.212Z,24.35
2022-11-10T08:19:15.902Z,27.35
2022-11-10T08:21:42.690Z,20.67
2022-11-10T08:24:09.701Z,31.27
2022-11-10T08:26:36.310Z,19.83
2022-11-10T08:29:02.974Z,29.48
2022-11-10T08:31:32.084Z,24.27
2022-11-10T08:33:58.922Z,26.92
2022-11-10T08:36:25.463Z,24.75
2022-11-10T08:38:52.209Z,26.75
2022-11-10T08:41:19.128Z,20.90
2022-11-10T08:43:47.289Z,23.42
2022-11-10T08:46:13.992Z,20.80
2022-11-10T08:48:40.756Z,24.17
2022-11-10T08:51:07.182Z,21.02
2022-11-10T08:53:34.071Z,17.65
2022-11-10T08:56:03.926Z,20.20
2022-11-10T08:58:33.696Z,22.23
2022-11-10T09:01:02.936Z,21.77
2022-11-10T09:03:29.531Z,21.83
2022-11-10T09:06:01.532Z,22.73
2022-11-10T09:08:30.653Z,21.88
2022-11-10T09:10:57.366Z,19.50
2022-11-10T09:13:29.486Z,19.05
2022-11-10T09:15:57.165Z,19.87
2022-11-10T09:18:23.957Z,21.45
2022-11-10T09:20:50.383Z,21.73
2022-11-10T09:23:18.351Z,16.25
2022-11-10T09:25:49.783Z,26.70
2022-11-10T09:28:17.055Z,20.02
2022-11-10T09:30:45.917Z,20.83
2022-11-10T09:33:12.970Z,17.30
2022-11-10T09:35:39.612Z,21.00
2022-11-10T09:38:06.881Z,27.65
2022-11-10T09:40:43.286Z,26.40
2022-11-10T09:43:14.708Z,23.27
2022-11-10T09:45:42.898Z,14.40
2022-11-10T09:48:15.688Z,19.58
2022-11-10T09:50:53.431Z,15.20
2022-11-10T09:53:23.068Z,18.65
2022-11-10T09:55:50.498Z,20.70
2022-11-10T09:58:18.470Z,15.95
2022-11-10T10:00:58.513Z,20.63
2022-11-10T10:03:28.724Z,19.10
2022-11-10T10:06:09.907Z,19.40
2022-11-10T10:08:50.748Z,19.00
2022-11-10T10:11:27.007Z,17.77
2022-11-10T10:13:56.675Z,18.95
2022-11-10T10:16:39.971Z,17.40
2022-11-10T10:19:21.399Z,24.27
2022-11-10T10:22:00.274Z,16.33
2022-11-10T10:24:32.485Z,24.15
2022-11-10T10:27:01.295Z,17.30
2022-11-10T10:29:36.056Z,17.15
2022-11-10T10:32:11.716Z,15.68
2022-11-10T10:34:38.801Z,17.65
2022-11-10T10:37:11.298Z,15.90
2022-11-10T10:39:45.785Z,12.38
2022-11-10T10:42:45.211Z,15.95
2022-11-10T10:45:18.114Z,18.75
2022-11-10T10:47:45.769Z,18.83
2022-11-10T10:50:26.945Z,18.00
2022-11-10T10:53:20.654Z,13.77
2022-11-10T10:55:53.289Z,14.68
2022-11-10T10:58:40.397Z,12.20
2022-11-10T11:01:16.458Z,8.98
2022-11-10T11:03:44.666Z,11.70
2022-11-10T11:06:17.327Z,9.75
2022-11-10T11:08:59.810Z,15.33
2022-11-10T11:11:39.652Z,20.02
2022-11-10T11:14:18.613Z,20.33
2022-11-10T11:16:50.007Z,9.75
2022-11-10T11:19:16.888Z,13.85
2022-11-10T11:22:02.198Z,12.05
2022-11-10T11:24:43.046Z,18.65
2022-11-10T11:27:18.214Z,12.27
2022-11-10T11:29:44.807Z,13.05
2022-11-10T11:32:17.790Z,9.60
2022-11-10T11:34:55.255Z,9.38
2022-11-10T11:37:28.267Z,12.90
2022-11-10T11:40:07.706Z,14.68
2022-11-10T11:42:37.278Z,14.13
2022-11-10T11:45:22.607Z,13.07
2022-11-10T11:47:49.065Z,12.55
2022-11-10T11:50:20.797Z,10.02
2022-11-10T11:52:58.001Z,14.07
2022-11-10T11:55:31.319Z,11.80
2022-11-10T11:58:23.075Z,12.35
2022-11-10T12:00:57.682Z,16.48
2022-11-10T12:03:42.948Z,9.68
2022-11-10T12:06:09.630Z,13.43
2022-11-10T12:08:36.216Z,9.85
2022-11-10T12:11:18.033Z,13.00
2022-11-10T12:13:54.206Z,11.90
2022-11-10T12:16:23.158Z,8.18
2022-11-10T12:18:58.893Z,15.80
2022-11-10T12:21:29.169Z,11.35
2022-11-10T12:24:14.263Z,13.00
2022-11-10T12:26:49.566Z,14.15
2022-11-10T12:29:25.674Z,8.10
2022-11-10T12:31:55.155Z,8.73
2022-11-10T12:34:37.930Z,8.18
2022-11-10T12:37:06.786Z,15.07
2022-11-10T12:39:59.700Z,10.27
2022-11-10T12:42:28.636Z,7.72
2022-11-10T12:45:00.026Z,9.82
2022-11-10T12:47:29.591Z,9.50
2022-11-10T12:50:14.999Z,7.20
2022-11-10T12:52:56.152Z,9.45
2022-11-10T12:55:26.402Z,7.68
2022-11-10T12:57:53.286Z,12.57
2022-11-10T13:00:25.168Z,7.97
2022-11-10T13:02:56.257Z,7.43
2022-11-10T13:05:26.117Z,7.22
2022-11-10T13:08:09.262Z,6.18
2022-11-10T13:10:36.088Z,9.02
2022-11-10T13:13:05.757Z,7.35
2022-11-10T13:15:35.335Z,5.95
2022-11-10T13:18:02.145Z,14.18
2022-11-10T13:20:48.441Z,10.13
2022-11-10T13:23:27.637Z,6.22
2022-11-10T13:25:59.690Z,14.23
2022-11-10T13:28:45.794Z,7.25
2022-11-10T13:31:27.656Z,8.52
2022-11-10T13:34:10.840Z,13.25
2022-11-10T13:36:37.571Z,6.68
2022-11-10T13:39:26.105Z,6.15
2022-11-10T13:41:53.101Z,10.73
2022-11-10T13:44:32.714Z,9.68
2022-11-10T13:47:08.416Z,3.85
2022-11-10T13:49:49.564Z,5.35
2022-11-10T13:52:26.868Z,10.13
2022-11-10T13:55:16.189Z,8.27
2022-11-10T13:57:56.430Z,12.30
2022-11-10T14:00:25.718Z,9.88
2022-11-10T14:02:56.418Z,13.23
2022-11-10T14:05:29.340Z,7.07
2022-11-10T14:07:58.029Z,5.88
2022-11-10T14:10:33.523Z,7.53
2022-11-10T14:13:05.720Z,9.75
2022-11-10T14:15:39.012Z,5.03
2022-11-10T14:18:14.507Z,6.78
2022-11-10T14:20:48.072Z,5.15
2022-11-10T14:23:43.940Z,8.43
2022-11-10T14:26:33.779Z,9.30
2022-11-10T14:29:19.187Z,7.75
2022-11-10T14:31:49.205Z,5.82
2022-11-10T14:34:17.013Z,10.75
2022-11-10T14:36:51.030Z,12.57
2022-11-10T14:39:18.411Z,9.90
2022-11-10T14:41:48.876Z,8.95
2022-11-10T14:44:20.696Z,12.07
2022-11-10T14:46:47.145Z,6.43
2022-11-10T14:49:13.639Z,10.57
2022-11-10T14:51:40.267Z,5.25
2022-11-10T14:54:12.127Z,5.88
2022-11-10T14:56:40.546Z,8.60
2022-11-10T14:59:11.074Z,8.15
2022-11-10T15:01:42.411Z,4.95
2022-11-10T15:04:11.252Z,5.78
2022-11-10T15:06:41.901Z,11.23
2022-11-10T15:09:23.032Z,8.48
2022-11-10T15:11:52.381Z,9.45
2022-11-10T15:14:35.638Z,15.57
2022-11-10T15:17:03.742Z,7.78
2022-11-10T15:19:31.595Z,8.88
2022-11-10T15:22:13.361Z,6.80
2022-11-10T15:24:44.082Z,5.88
2022-11-10T15:27:13.345Z,7.63
2022-11-10T15:29:39.950Z,4.60
2022-11-10T15:32:14.352Z,6.20
2022-11-10T15:34:42.435Z,6.65
2022-11-10T15:37:34.871Z,7.00
2022-11-10T15:40:20.153Z,6.00
2022-11-10T15:43:06.651Z,5.93
2022-11-10T15:45:33.759Z,8.43
2022-11-10T15:48:00.246Z,12.48
2022-11-10T15:50:27.088Z,5.45
2022-11-10T15:52:53.495Z,10.00
2022-11-10T15:55:24.275Z,6.53
2022-11-10T15:57:50.967Z,6.80
2022-11-10T16:00:20.569Z,7.13
2022-11-10T16:02:47.331Z,9.50
2022-11-10T16:05:13.974Z,7.80
2022-11-10T16:07:40.454Z,9.23
2022-11-10T16:10:07.369Z,14.40
2022-11-10T16:12:35.042Z,11.10
2022-11-10T16:15:01.759Z,13.68
2022-11-10T16:17:33.769Z,11.95
2022-11-10T16:20:00.721Z,11.77
2022-11-10T16:22:27.230Z,7.35
2022-11-10T16:24:53.735Z,11.68
2022-11-10T16:27:20.116Z,6.88
2022-11-10T16:29:46.978Z,13.40
2022-11-10T16:32:14.121Z,8.77
2022-11-10T16:34:40.746Z,7.75
2022-11-10T16:37:10.349Z,11.18
2022-11-10T16:39:37.074Z,9.18
2022-11-10T16:42:03.729Z,9.05
2022-11-10T16:44:30.144Z,9.63
2022-11-10T16:46:57.392Z,10.43
2022-11-10T16:49:37.830Z,9.63
2022-11-10T16:52:08.483Z,8.45
2022-11-10T16:54:35.361Z,9.50
2022-11-10T16:57:01.893Z,12.20
2022-11-10T16:59:28.490Z,11.13
2022-11-10T17:01:55.197Z,7.63
2022-11-10T17:04:21.813Z,8.73
2022-11-10T17:06:49.488Z,11.68
2022-11-10T17:09:22.158Z,12.77
2022-11-10T17:11:57.577Z,6.53
2022-11-10T17:14:24.527Z,12.27
2022-11-10T17:16:50.979Z,13.48
2022-11-10T17:19:23.592Z,15.05
2022-11-10T17:21:50.836Z,9.13
2022-11-10T17:24:17.612Z,9.60
2022-11-10T17:26:53.496Z,9.05
2022-11-10T17:29:21.377Z,11.80
2022-11-10T17:31:50.430Z,7.80
2022-11-10T17:34:17.108Z,8.15
2022-11-10T17:36:47.050Z,12.10
2022-11-10T17:39:17.444Z,10.50
2022-11-10T17:41:43.877Z,12.80
2022-11-10T17:44:17.616Z,5.97
2022-11-10T17:46:47.082Z,8.02
2022-11-10T17:49:13.944Z,9.75
2022-11-10T17:51:43.501Z,8.35
2022-11-10T17:54:14.202Z,15.63
2022-11-10T17:56:40.889Z,12.15
2022-11-10T17:59:13.234Z,9.63
2022-11-10T18:01:39.716Z,15.20
2022-11-10T18:04:06.470Z,13.02
2022-11-10T18:06:33.457Z,9.15
2022-11-10T18:09:00.093Z,11.30
2022-11-10T18:11:26.906Z,17.65
2022-11-10T18:13:53.840Z,15.75
2022-11-10T18:16:23.485Z,14.82
2022-11-10T18:18:50.501Z,10.57
2022-11-10T18:21:17.160Z,19.67
2022-11-10T18:23:47.663Z,13.23
2022-11-10T18:26:14.446Z,12.55
2022-11-10T18:28:43.506Z,9.32
2022-11-10T18:31:30.183Z,9.93
2022-11-10T18:33:56.789Z,11.95
2022-11-10T18:36:23.813Z,13.88
2022-11-10T18:38:53.669Z,10.25
2022-11-10T18:41:38.949Z,11.88
2022-11-10T18:44:12.940Z,9.50
2022-11-10T18:46:39.823Z,13.13
2022-11-10T18:49:07.534Z,15.00
2022-11-10T18:51:34.528Z,15.02
2022-11-10T18:54:01.225Z,20.02
2022-11-10T18:56:28.378Z,12.68
2022-11-10T18:58:56.848Z,11.30
2022-11-10T19:01:24.213Z,16.48
2022-11-10T19:03:53.671Z,11.23
2022-11-10T19:06:22.762Z,13.35
2022-11-10T19:08:52.521Z,16.30
2022-11-10T19:11:20.465Z,15.57
2022-11-10T19:13:47.283Z,21.27
2022-11-10T19:16:15.408Z,9.15
2022-11-10T19:18:42.939Z,14.38
2022-11-10T19:21:11.339Z,13.35
2022-11-10T19:23:37.855Z,20.65
2022-11-10T19:26:12.393Z,9.95
2022-11-10T19:28:39.379Z,13.68
2022-11-10T19:31:13.299Z,16.23
2022-11-10T19:33:41.342Z,14.93
2022-11-10T19:36:09.861Z,11.93
2022-11-10T19:38:36.939Z,12.57
2022-11-10T19:41:13.649Z,15.02
2022-11-10T19:43:46.215Z,13.70
2022-11-10T19:46:16.149Z,12.70
2022-11-10T19:48:43.862Z,14.73
2022-11-10T19:51:11.783Z,9.30
2022-11-10T19:53:38.805Z,16.52
2022-11-10T19:56:28.981Z,20.45
2022-11-10T19:59:02.076Z,11.23
2022-11-10T20:01:38.800Z,13.45
2022-11-10T20:04:08.749Z,13.07
2022-11-10T20:06:44.650Z,14.73
2022-11-10T20:09:11.455Z,12.82
2022-11-10T20:11:43.853Z,15.65
2022-11-10T20:14:23.982Z,10.98
2022-11-10T20:19:41.486Z,12.63
2022-11-10T20:22:08.694Z,17.73
2022-11-10T20:24:36.260Z,17.77
2022-11-10T20:27:18.475Z,14.25
2022-11-10T20:29:54.405Z,10.38
2022-11-10T20:32:21.091Z,14.63
2022-11-10T20:34:47.663Z,11.93
2022-11-10T20:37:14.250Z,18.70
2022-11-10T20:39:40.870Z,17.50
2022-11-10T20:42:07.657Z,14.70
2022-11-10T20:44:34.301Z,18.08
2022-11-10T20:47:00.907Z,17.65
2022-11-10T20:49:27.786Z,14.45
2022-11-10T20:51:59.791Z,16.20
2022-11-10T20:54:29.487Z,14.18
2022-11-10T20:56:56.127Z,16.52
2022-11-10T20:59:25.619Z,18.75
2022-11-10T21:01:52.707Z,15.70
2022-11-10T21:04:19.515Z,13.80
2022-11-10T21:06:50.149Z,13.88
2022-11-10T21:09:16.951Z,12.73
2022-11-10T21:12:02.477Z,16.92
2022-11-10T21:14:29.149Z,16.52
2022-11-10T21:16:57.117Z,22.35
2022-11-10T21:19:23.886Z,15.65
2022-11-10T21:21:51.788Z,15.00
2022-11-10T21:24:18.551Z,15.30
2022-11-10T21:26:53.926Z,19.13
2022-11-10T21:29:20.623Z,16.50
2022-11-10T21:31:47.775Z,17.33
2022-11-10T21:34:14.565Z,16.15
2022-11-10T21:36:48.432Z,13.18
2022-11-10T21:39:15.209Z,18.17
2022-11-10T21:41:42.112Z,15.77
2022-11-10T21:44:08.846Z,18.33
2022-11-10T21:46:35.429Z,17.33
2022-11-10T21:49:07.136Z,13.82
2022-11-10T21:51:34.281Z,14.15
2022-11-10T21:54:04.408Z,17.25
2022-11-10T21:56:31.156Z,18.95
2022-11-10T21:58:57.802Z,17.50
2022-11-10T22:01:27.210Z,11.95
2022-11-10T22:03:54.108Z,19.73
2022-11-10T22:06:21.487Z,14.95
2022-11-10T22:08:48.413Z,20.45
2022-11-10T22:11:34.757Z,16.02
2022-11-10T22:14:20.265Z,16.00
2022-11-10T22:17:09.185Z,16.95
2022-11-10T22:19:36.731Z,15.23
2022-11-10T22:22:06.514Z,16.45
2022-11-10T22:24:35.763Z,14.57
2022-11-10T22:27:05.319Z,18.70
2022-11-10T22:29:32.685Z,15.50
2022-11-10T22:32:00.044Z,19.05
2022-11-10T22:34:26.898Z,17.58
2022-11-10T22:36:54.920Z,16.77
2022-11-10T22:39:55.159Z,14.85
2022-11-10T22:42:40.390Z,14.43
2022-11-10T22:45:07.555Z,18.23
2022-11-10T22:47:52.868Z,12.70
2022-11-10T22:50:25.142Z,12.63
2022-11-10T22:52:52.088Z,12.40
2022-11-10T22:55:24.361Z,13.70
2022-11-10T22:57:52.143Z,14.18
2022-11-10T23:00:18.896Z,14.65
2022-11-10T23:02:45.817Z,14.68
2022-11-10T23:05:13.035Z,13.35
2022-11-10T23:07:44.649Z,14.80
2022-11-10T23:10:11.301Z,12.98
2022-11-10T23:12:38.230Z,15.60
2022-11-10T23:15:05.025Z,14.48
2022-11-10T23:17:31.924Z,13.38
2022-11-10T23:19:58.598Z,18.02
2022-11-10T23:22:28.115Z,16.50
2022-11-10T23:24:57.372Z,23.80
2022-11-10T23:27:24.434Z,15.50
2022-11-10T23:29:51.945Z,17.67
2022-11-10T23:32:18.970Z,16.27
2022-11-10T23:34:48.864Z,24.00
2022-11-10T23:37:18.291Z,16.85
2022-11-10T23:39:44.973Z,18.35
2022-11-10T23:42:20.974Z,19.38
2022-11-10T23:44:47.771Z,14.57
2022-11-10T23:47:14.464Z,18.67
2022-11-10T23:49:47.140Z,13.30
2022-11-10T23:52:23.293Z,19.67
2022-11-10T23:54:52.837Z,21.08
2022-11-10T23:57:23.183Z,17.40
2022-11-10T23:59:49.925Z,16.98
